createdAt,value
2023-03-17T00:01:51.512Z,9.75
2023-03-17T00:04:19.589Z,9.78
2023-03-17T00:06:46.634Z,9.82
2023-03-17T00:09:14.908Z,9.81
2023-03-17T00:11:42.189Z,9.83
2023-03-17T00:14:09.253Z,9.84
2023-03-17T00:16:42.892Z,9.83
2023-03-17T00:19:26.599Z,9.83
2023-03-17T00:21:53.237Z,9.88
2023-03-17T00:24:19.684Z,9.91
2023-03-17T00:26:46.945Z,9.91
2023-03-17T00:29:13.514Z,9.92
2023-03-17T00:31:40.438Z,9.92
2023-03-17T00:34:08.037Z,9.93
2023-03-17T00:36:35.821Z,9.95
2023-03-17T00:39:02.332Z,9.95
2023-03-17T00:41:29.596Z,9.97
2023-03-17T00:43:57.243Z,9.97
2023-03-17T00:46:28.774Z,9.99
2023-03-17T00:48:55.510Z,9.98
2023-03-17T00:51:23.296Z,9.96
2023-03-17T00:53:49.959Z,9.97
2023-03-17T00:56:19.881Z,9.98
2023-03-17T00:58:47.627Z,9.99
2023-03-17T01:01:14.301Z,9.99
2023-03-17T01:03:41.514Z,9.98
2023-03-17T01:06:11.606Z,9.98
2023-03-17T01:08:40.769Z,9.98
2023-03-17T01:11:14.654Z,9.99
2023-03-17T01:13:41.696Z,10.00
2023-03-17T01:16:12.379Z,9.99
2023-03-17T01:18:39.660Z,10.01
2023-03-17T01:21:09.375Z,9.99
2023-03-17T01:23:35.860Z,10.01
2023-03-17T01:26:02.243Z,10.00
2023-03-17T01:28:29.035Z,10.00
2023-03-17T01:30:55.481Z,10.00
2023-03-17T01:33:22.145Z,9.99
2023-03-17T01:35:50.684Z,9.97
2023-03-17T01:38:17.482Z,9.97
2023-03-17T01:40:47.875Z,9.95
2023-03-17T01:43:24.160Z,9.92
2023-03-17T01:46:21.037Z,9.89
2023-03-17T01:49:06.737Z,9.89
2023-03-17T01:51:53.308Z,9.88
2023-03-17T01:54:28.745Z,9.90
2023-03-17T01:57:01.906Z,9.89
2023-03-17T01:59:33.713Z,9.90
2023-03-17T02:02:06.284Z,9.88
2023-03-17T02:04:33.986Z,9.90
2023-03-17T02:07:02.477Z,9.91
2023-03-17T02:09:29.274Z,9.93
2023-03-17T02:11:57.589Z,9.91
2023-03-17T02:14:24.279Z,9.91
2023-03-17T02:16:50.677Z,9.90
2023-03-17T02:19:17.188Z,9.89
2023-03-17T02:21:49.229Z,9.89
2023-03-17T02:24:33.111Z,9.85
2023-03-17T02:27:06.675Z,9.87
2023-03-17T02:29:35.856Z,9.86
2023-03-17T02:32:02.416Z,9.86
2023-03-17T02:34:28.816Z,9.86
2023-03-17T02:36:55.330Z,9.84
2023-03-17T02:39:21.717Z,9.83
2023-03-17T02:41:48.168Z,9.83
2023-03-17T02:44:14.522Z,9.84
2023-03-17T02:46:41.399Z,9.84
2023-03-17T02:49:08.467Z,9.84
2023-03-17T02:51:34.863Z,9.84
2023-03-17T02:54:01.742Z,9.83
2023-03-17T02:56:28.133Z,9.85
2023-03-17T02:58:54.509Z,9.86
2023-03-17T03:01:21.228Z,9.87
2023-03-17T03:03:48.023Z,9.89
2023-03-17T03:06:14.678Z,9.90
2023-03-17T03:08:41.111Z,9.89
2023-03-17T03:11:07.491Z,9.89
2023-03-17T03:13:33.890Z,9.89
2023-03-17T03:16:00.579Z,9.89
2023-03-17T03:18:27.097Z,9.90
2023-03-17T03:20:53.534Z,9.90
2023-03-17T03:23:19.935Z,9.90
2023-03-17T03:25:46.611Z,9.92
2023-03-17T03:28:13.603Z,9.94
2023-03-17T03:30:40.966Z,9.96
2023-03-17T03:33:07.775Z,9.96
2023-03-17T03:35:34.460Z,9.97
2023-03-17T03:38:01.506Z,9.96
2023-03-17T03:40:28.463Z,9.96
2023-03-17T03:42:54.926Z,9.97
2023-03-17T03:45:21.239Z,9.95
2023-03-17T03:47:47.549Z,9.97
2023-03-17T03:50:14.256Z,9.98
2023-03-17T03:52:40.922Z,9.99
2023-03-17T03:55:08.126Z,10.00
2023-03-17T03:57:34.852Z,10.02
2023-03-17T04:00:01.590Z,10.03
2023-03-17T04:02:28.004Z,10.04
2023-03-17T04:04:54.591Z,10.04
2023-03-17T04:07:21.356Z,10.08
2023-03-17T04:09:49.180Z,10.10
2023-03-17T04:12:17.665Z,10.11
2023-03-17T04:14:44.504Z,10.13
2023-03-17T04:17:11.972Z,10.15
2023-03-17T04:19:38.827Z,10.15
2023-03-17T04:22:07.364Z,10.17
2023-03-17T04:24:34.707Z,10.19
2023-03-17T04:27:04.195Z,10.17
2023-03-17T04:29:31.989Z,10.16
2023-03-17T04:31:58.398Z,10.19
2023-03-17T04:34:24.774Z,10.20
2023-03-17T04:36:51.508Z,10.21
2023-03-17T04:39:18.306Z,10.24
2023-03-17T04:41:44.793Z,10.25
2023-03-17T04:44:11.123Z,10.27
2023-03-17T04:46:38.230Z,10.26
2023-03-17T04:49:04.596Z,10.28
2023-03-17T04:51:31.194Z,10.27
2023-03-17T04:53:57.543Z,10.29
2023-03-17T04:56:23.937Z,10.29
2023-03-17T04:58:50.347Z,10.27
2023-03-17T05:01:17.203Z,10.27
2023-03-17T05:03:43.777Z,10.29
2023-03-17T05:06:10.148Z,10.29
2023-03-17T05:08:36.675Z,10.30
2023-03-17T05:11:03.015Z,10.29
2023-03-17T05:13:29.497Z,10.29
2023-03-17T05:15:56.906Z,10.28
2023-03-17T05:18:25.371Z,10.29
2023-03-17T05:20:52.179Z,10.28
2023-03-17T05:23:18.984Z,10.27
2023-03-17T05:25:45.674Z,10.26
2023-03-17T05:28:12.307Z,10.25
2023-03-17T05:30:38.851Z,10.22
2023-03-17T05:33:06.063Z,10.22
2023-03-17T05:35:32.539Z,10.21
2023-03-17T05:37:58.931Z,10.20
2023-03-17T05:40:25.298Z,10.19
2023-03-17T05:42:51.722Z,10.17
2023-03-17T05:45:18.592Z,10.18
2023-03-17T05:47:45.637Z,10.19
2023-03-17T05:50:12.762Z,10.18
2023-03-17T05:52:39.165Z,10.17
2023-03-17T05:55:06.242Z,10.18
2023-03-17T05:57:32.651Z,10.14
2023-03-17T05:59:58.997Z,10.15
2023-03-17T06:02:25.474Z,10.13
2023-03-17T06:04:52.099Z,10.12
2023-03-17T06:07:18.480Z,10.12
2023-03-17T06:09:44.815Z,10.12
2023-03-17T06:12:11.292Z,10.12
2023-03-17T06:14:37.638Z,10.13
2023-03-17T06:17:04.568Z,10.12
2023-03-17T06:19:31.023Z,10.13
2023-03-17T06:22:00.520Z,10.12
2023-03-17T06:24:26.987Z,10.12
2023-03-17T06:26:53.385Z,10.12
2023-03-17T06:29:20.154Z,10.11
2023-03-17T06:31:51.297Z,10.11
2023-03-17T06:34:18.795Z,10.10
2023-03-17T06:36:45.456Z,10.10
2023-03-17T06:39:12.805Z,10.10
2023-03-17T06:41:39.512Z,10.11
2023-03-17T06:44:06.392Z,10.12
2023-03-17T06:46:33.246Z,10.13
2023-03-17T06:48:59.705Z,10.14
2023-03-17T06:51:26.124Z,10.17
2023-03-17T06:53:52.815Z,10.19
2023-03-17T06:56:29.407Z,10.23
2023-03-17T06:58:56.901Z,10.24
2023-03-17T07:01:23.457Z,10.29
2023-03-17T07:03:49.948Z,10.34
2023-03-17T07:06:16.356Z,10.37
2023-03-17T07:08:42.829Z,10.41
2023-03-17T07:11:09.792Z,10.46
2023-03-17T07:13:38.623Z,10.52
2023-03-17T07:16:05.455Z,10.55
2023-03-17T07:18:34.688Z,10.60
2023-03-17T07:21:02.192Z,10.65
2023-03-17T07:23:30.312Z,10.69
2023-03-17T07:28:48.826Z,10.79
2023-03-17T07:31:15.395Z,10.84
2023-03-17T07:33:42.220Z,10.88
2023-03-17T07:36:09.218Z,10.91
2023-03-17T07:38:36.313Z,10.96
2023-03-17T07:41:04.664Z,11.00
2023-03-17T07:43:31.932Z,11.05
2023-03-17T07:45:58.859Z,11.09
2023-03-17T07:48:25.570Z,11.15
2023-03-17T07:50:52.287Z,11.19
2023-03-17T07:53:19.305Z,11.25
2023-03-17T07:55:45.848Z,11.30
2023-03-17T07:58:15.178Z,11.35
2023-03-17T08:00:42.351Z,11.41
2023-03-17T08:03:10.950Z,11.46
2023-03-17T08:05:38.079Z,11.52
2023-03-17T08:08:06.686Z,11.56
2023-03-17T08:10:33.739Z,11.61
2023-03-17T08:13:00.868Z,11.66
2023-03-17T08:15:27.519Z,11.71
2023-03-17T08:17:54.227Z,11.75
2023-03-17T08:20:21.836Z,11.81
2023-03-17T08:22:48.341Z,11.86
2023-03-17T08:25:15.071Z,11.90
2023-03-17T08:27:42.511Z,11.95
2023-03-17T08:30:10.040Z,12.00
2023-03-17T08:32:36.909Z,12.06
2023-03-17T08:35:05.715Z,12.11
2023-03-17T08:37:32.669Z,12.18
2023-03-17T08:39:59.143Z,12.23
2023-03-17T08:42:25.979Z,12.28
2023-03-17T08:44:52.478Z,12.33
2023-03-17T08:47:18.996Z,12.37
2023-03-17T08:49:45.561Z,12.42
2023-03-17T08:52:12.208Z,12.49
2023-03-17T08:54:38.880Z,12.55
2023-03-17T08:57:05.406Z,12.61
2023-03-17T08:59:31.900Z,12.68
2023-03-17T09:01:58.460Z,12.73
2023-03-17T09:04:25.888Z,12.80
2023-03-17T09:07:03.356Z,12.82
2023-03-17T09:09:31.134Z,12.86
2023-03-17T09:11:57.759Z,12.90
2023-03-17T09:14:25.040Z,12.92
2023-03-17T09:16:52.283Z,12.95
2023-03-17T09:19:19.131Z,12.99
2023-03-17T09:21:46.178Z,13.04
2023-03-17T09:24:13.694Z,13.06
2023-03-17T09:26:40.488Z,13.11
2023-03-17T09:29:07.500Z,13.15
2023-03-17T09:31:36.435Z,13.21
2023-03-17T09:34:06.374Z,13.24
2023-03-17T09:36:33.696Z,13.31
2023-03-17T09:39:01.367Z,13.36
2023-03-17T09:41:34.255Z,13.41
2023-03-17T09:44:19.703Z,13.47
2023-03-17T09:47:15.525Z,13.57
2023-03-17T09:49:48.547Z,13.70
2023-03-17T09:52:28.591Z,13.82
2023-03-17T09:54:56.014Z,14.00
2023-03-17T09:57:26.220Z,14.11
2023-03-17T10:00:01.529Z,14.19
2023-03-17T10:02:39.322Z,14.33
2023-03-17T10:05:27.846Z,14.42
2023-03-17T10:08:45.980Z,14.57
2023-03-17T10:11:31.394Z,14.77
2023-03-17T10:14:00.743Z,14.93
2023-03-17T10:16:54.846Z,15.06
2023-03-17T10:19:31.438Z,15.25
2023-03-17T10:22:04.274Z,15.41
2023-03-17T10:24:32.984Z,15.58
2023-03-17T10:27:04.654Z,15.73
2023-03-17T10:29:32.443Z,15.86
2023-03-17T10:31:59.097Z,15.97
2023-03-17T10:34:32.639Z,16.07
2023-03-17T10:37:06.921Z,16.14
2023-03-17T10:39:44.716Z,16.23
2023-03-17T10:42:19.669Z,16.31
2023-03-17T10:44:48.993Z,16.36
2023-03-17T10:47:39.681Z,16.36
2023-03-17T10:50:15.478Z,16.44
2023-03-17T10:52:42.434Z,16.53
2023-03-17T10:55:15.286Z,16.56
2023-03-17T10:58:09.954Z,16.62
2023-03-17T11:00:38.498Z,16.75
2023-03-17T11:03:18.441Z,16.85
2023-03-17T11:05:56.973Z,16.98
2023-03-17T11:08:24.063Z,17.15
2023-03-17T11:10:56.691Z,17.24
2023-03-17T11:13:29.260Z,17.39
2023-03-17T11:16:02.052Z,17.52
2023-03-17T11:18:34.849Z,17.69
2023-03-17T11:21:16.048Z,17.83
2023-03-17T11:23:48.677Z,18.04
2023-03-17T11:26:18.914Z,18.24
2023-03-17T11:29:07.871Z,18.45
2023-03-17T11:31:42.475Z,18.78
2023-03-17T11:34:20.029Z,19.05
2023-03-17T11:37:21.379Z,19.38
2023-03-17T11:39:59.815Z,19.76
2023-03-17T11:42:37.729Z,20.08
2023-03-17T11:45:23.773Z,20.36
2023-03-17T11:48:14.421Z,20.59
2023-03-17T11:50:49.888Z,20.82
2023-03-17T11:53:25.438Z,20.99
2023-03-17T11:56:01.657Z,21.10
2023-03-17T11:58:44.936Z,21.20
2023-03-17T12:01:19.386Z,21.34
2023-03-17T12:04:00.498Z,21.47
2023-03-17T12:06:38.398Z,21.65
2023-03-17T12:09:25.961Z,21.82
2023-03-17T12:11:56.469Z,22.00
2023-03-17T12:14:32.567Z,22.06
2023-03-17T12:17:10.797Z,22.11
2023-03-17T12:19:45.671Z,22.12
2023-03-17T12:22:12.108Z,22.16
2023-03-17T12:24:50.392Z,22.17
2023-03-17T12:27:27.241Z,22.13
2023-03-17T12:30:20.876Z,22.10
2023-03-17T12:32:50.402Z,22.15
2023-03-17T12:35:27.885Z,22.12
2023-03-17T12:37:58.137Z,22.16
2023-03-17T12:40:50.394Z,22.10
2023-03-17T12:43:41.295Z,22.07
2023-03-17T12:46:28.664Z,22.07
2023-03-17T12:49:22.983Z,21.99
2023-03-17T12:52:22.007Z,21.90
2023-03-17T12:54:51.974Z,21.86
2023-03-17T12:57:22.486Z,21.79
2023-03-17T12:59:57.576Z,21.72
2023-03-17T13:02:27.205Z,21.65
2023-03-17T13:05:00.815Z,21.62
2023-03-17T13:07:37.836Z,21.57
2023-03-17T13:10:14.007Z,21.51
2023-03-17T13:12:40.455Z,21.46
2023-03-17T13:15:25.349Z,21.23
2023-03-17T13:18:10.645Z,21.11
2023-03-17T13:20:40.225Z,20.89
2023-03-17T13:23:16.066Z,20.64
2023-03-17T13:25:42.930Z,20.51
2023-03-17T13:28:12.239Z,20.30
2023-03-17T13:30:38.727Z,20.21
2023-03-17T13:33:11.435Z,20.05
2023-03-17T13:35:53.001Z,20.01
2023-03-17T13:38:22.261Z,19.94
2023-03-17T13:41:07.003Z,19.88
2023-03-17T13:43:44.032Z,19.96
2023-03-17T13:46:39.293Z,19.95
2023-03-17T13:49:19.460Z,20.01
2023-03-17T13:52:07.188Z,20.06
2023-03-17T13:54:40.708Z,20.19
2023-03-17T13:57:27.272Z,20.28
2023-03-17T14:00:11.791Z,20.46
2023-03-17T14:02:39.944Z,20.64
2023-03-17T14:05:08.892Z,20.82
2023-03-17T14:07:47.946Z,20.98
2023-03-17T14:10:20.321Z,21.14
2023-03-17T14:13:22.356Z,21.28
2023-03-17T14:16:14.345Z,21.49
2023-03-17T14:18:47.265Z,21.64
2023-03-17T14:21:24.371Z,21.68
2023-03-17T14:23:56.188Z,21.71
2023-03-17T14:26:24.701Z,21.63
2023-03-17T14:28:51.498Z,21.49
2023-03-17T14:31:24.916Z,21.33
2023-03-17T14:33:56.428Z,21.25
2023-03-17T14:36:23.772Z,21.17
2023-03-17T14:38:52.871Z,21.09
2023-03-17T14:41:25.256Z,21.02
2023-03-17T14:43:54.399Z,21.02
2023-03-17T14:46:26.750Z,21.01
2023-03-17T14:48:58.428Z,21.06
2023-03-17T14:51:36.529Z,21.14
2023-03-17T14:54:12.344Z,21.19
2023-03-17T14:56:42.646Z,21.25
2023-03-17T14:59:34.423Z,21.19
2023-03-17T15:02:35.465Z,21.13
2023-03-17T15:05:17.238Z,21.10
2023-03-17T15:07:43.789Z,21.07
2023-03-17T15:10:19.305Z,20.98
2023-03-17T15:12:47.438Z,20.96
2023-03-17T15:15:22.023Z,20.92
2023-03-17T15:17:52.281Z,20.94
2023-03-17T15:20:19.882Z,20.99
2023-03-17T15:22:57.504Z,21.00
2023-03-17T15:25:33.013Z,21.12
2023-03-17T15:27:59.863Z,21.22
2023-03-17T15:30:29.454Z,21.31
2023-03-17T15:33:01.240Z,21.46
2023-03-17T15:35:27.903Z,21.65
2023-03-17T15:37:55.482Z,21.86
2023-03-17T15:40:22.221Z,22.10
2023-03-17T15:42:48.665Z,22.36
2023-03-17T15:45:16.714Z,22.57
2023-03-17T15:47:46.928Z,22.70
2023-03-17T15:50:17.833Z,22.73
2023-03-17T15:52:45.613Z,22.70
2023-03-17T15:55:19.866Z,22.58
2023-03-17T15:57:54.882Z,22.50
2023-03-17T16:00:24.589Z,22.34
2023-03-17T16:02:57.221Z,22.19
2023-03-17T16:05:27.711Z,22.03
2023-03-17T16:07:54.757Z,21.88
2023-03-17T16:10:26.698Z,21.69
2023-03-17T16:12:53.144Z,21.52
2023-03-17T16:15:25.703Z,21.32
2023-03-17T16:17:59.145Z,21.14
2023-03-17T16:20:41.610Z,20.91
2023-03-17T16:23:14.344Z,20.77
2023-03-17T16:25:41.530Z,20.61
2023-03-17T16:28:13.855Z,20.43
2023-03-17T16:30:40.720Z,20.33
2023-03-17T16:33:25.374Z,20.13
2023-03-17T16:35:54.393Z,20.07
2023-03-17T16:38:23.491Z,19.97
2023-03-17T16:41:00.942Z,19.82
2023-03-17T16:43:30.618Z,19.76
2023-03-17T16:45:59.260Z,19.67
2023-03-17T16:48:26.185Z,19.58
2023-03-17T16:50:53.378Z,19.48
2023-03-17T16:53:20.575Z,19.38
2023-03-17T16:55:47.802Z,19.30
2023-03-17T16:58:20.176Z,19.21
2023-03-17T17:00:48.510Z,19.15
2023-03-17T17:03:15.303Z,19.09
2023-03-17T17:05:42.591Z,19.03
2023-03-17T17:08:09.352Z,18.97
2023-03-17T17:10:37.084Z,18.91
2023-03-17T17:13:07.683Z,18.84
2023-03-17T17:15:36.125Z,18.79
2023-03-17T17:18:11.446Z,18.71
2023-03-17T17:20:40.196Z,18.67
2023-03-17T17:23:11.828Z,18.59
2023-03-17T17:25:38.702Z,18.55
2023-03-17T17:28:05.536Z,18.49
2023-03-17T17:30:32.539Z,18.43
2023-03-17T17:33:00.808Z,18.36
2023-03-17T17:35:32.001Z,18.31
2023-03-17T17:37:59.878Z,18.26
2023-03-17T17:40:26.799Z,18.21
2023-03-17T17:42:54.293Z,18.16
2023-03-17T17:45:21.434Z,18.11
2023-03-17T17:47:48.302Z,18.05
2023-03-17T17:50:25.616Z,17.96
2023-03-17T17:52:52.948Z,17.96
2023-03-17T17:55:19.538Z,17.92
2023-03-17T17:57:46.122Z,17.89
2023-03-17T18:00:16.660Z,17.86
2023-03-17T18:02:43.564Z,17.81
2023-03-17T18:05:10.936Z,17.78
2023-03-17T18:07:37.424Z,17.74
2023-03-17T18:10:05.609Z,17.69
2023-03-17T18:12:32.112Z,17.67
2023-03-17T18:14:58.641Z,17.64
2023-03-17T18:17:25.073Z,17.61
2023-03-17T18:19:55.494Z,17.58
2023-03-17T18:22:22.633Z,17.55
2023-03-17T18:24:49.344Z,17.52
2023-03-17T18:27:16.871Z,17.50
2023-03-17T18:29:43.945Z,17.45
2023-03-17T18:32:12.102Z,17.44
2023-03-17T18:34:43.470Z,17.39
2023-03-17T18:37:13.198Z,17.36
2023-03-17T18:39:41.097Z,17.35
2023-03-17T18:42:08.308Z,17.32
2023-03-17T18:44:34.993Z,17.28
2023-03-17T18:47:01.578Z,17.25
2023-03-17T18:49:28.418Z,17.23
2023-03-17T18:51:56.317Z,17.19
2023-03-17T18:54:23.698Z,17.15
2023-03-17T18:56:50.592Z,17.13
2023-03-17T18:59:17.019Z,17.11
2023-03-17T19:01:43.584Z,17.07
2023-03-17T19:04:10.031Z,17.04
2023-03-17T19:06:39.406Z,17.02
2023-03-17T19:09:06.722Z,16.99
2023-03-17T19:11:33.346Z,16.94
2023-03-17T19:13:59.781Z,16.90
2023-03-17T19:16:29.163Z,16.85
2023-03-17T19:18:56.813Z,16.80
2023-03-17T19:21:23.901Z,16.77
2023-03-17T19:23:51.098Z,16.74
2023-03-17T19:26:18.381Z,16.73
2023-03-17T19:28:45.036Z,16.70
2023-03-17T19:31:11.737Z,16.68
2023-03-17T19:33:38.653Z,16.66
2023-03-17T19:36:11.336Z,16.64
2023-03-17T19:38:38.365Z,16.63
2023-03-17T19:41:05.321Z,16.62
2023-03-17T19:43:40.377Z,16.60
2023-03-17T19:46:08.960Z,16.57
2023-03-17T19:48:36.513Z,16.54
2023-03-17T19:51:03.205Z,16.52
2023-03-17T19:53:29.882Z,16.49
2023-03-17T19:55:56.909Z,16.46
2023-03-17T19:58:23.510Z,16.44
2023-03-17T20:01:01.573Z,16.39
2023-03-17T20:03:28.415Z,16.38
2023-03-17T20:05:55.050Z,16.35
2023-03-17T20:08:22.519Z,16.32
2023-03-17T20:10:54.009Z,16.27
2023-03-17T20:13:21.921Z,16.24
2023-03-17T20:15:49.579Z,16.21
2023-03-17T20:18:17.078Z,16.18
2023-03-17T20:20:49.434Z,16.12
2023-03-17T20:23:16.829Z,16.07
2023-03-17T20:25:43.665Z,16.04
2023-03-17T20:28:11.462Z,15.99
2023-03-17T20:30:39.716Z,15.95
2023-03-17T20:33:08.307Z,15.92
2023-03-17T20:35:35.336Z,15.90
2023-03-17T20:38:02.005Z,15.85
2023-03-17T20:40:28.865Z,15.81
2023-03-17T20:42:55.873Z,15.77
2023-03-17T20:45:23.128Z,15.73
2023-03-17T20:47:49.960Z,15.70
2023-03-17T20:50:16.911Z,15.67
2023-03-17T20:52:43.780Z,15.64
2023-03-17T20:55:14.039Z,15.62
2023-03-17T20:57:42.600Z,15.59
2023-03-17T21:00:13.319Z,15.55
2023-03-17T21:02:39.899Z,15.55
2023-03-17T21:05:07.399Z,15.53
2023-03-17T21:07:33.992Z,15.52
2023-03-17T21:10:02.059Z,15.49
2023-03-17T21:12:28.632Z,15.48
2023-03-17T21:14:55.777Z,15.48
2023-03-17T21:17:22.813Z,15.45
2023-03-17T21:19:49.329Z,15.43
2023-03-17T21:22:16.134Z,15.40
2023-03-17T21:24:42.645Z,15.39
2023-03-17T21:27:11.290Z,15.37
2023-03-17T21:29:38.998Z,15.35
2023-03-17T21:32:08.397Z,15.33
2023-03-17T21:34:35.909Z,15.33
2023-03-17T21:37:02.579Z,15.33
2023-03-17T21:39:29.788Z,15.30
2023-03-17T21:41:57.091Z,15.27
2023-03-17T21:44:23.668Z,15.27
2023-03-17T21:46:50.879Z,15.24
2023-03-17T21:49:18.734Z,15.23
2023-03-17T21:51:46.681Z,15.21
2023-03-17T21:54:14.190Z,15.21
2023-03-17T21:56:41.603Z,15.20
2023-03-17T21:59:10.893Z,15.18
2023-03-17T22:01:39.548Z,15.18
2023-03-17T22:04:07.369Z,15.16
2023-03-17T22:06:34.239Z,15.15
2023-03-17T22:09:00.840Z,15.14
2023-03-17T22:11:27.306Z,15.12
2023-03-17T22:13:53.918Z,15.11
2023-03-17T22:16:21.771Z,15.10
2023-03-17T22:18:48.501Z,15.06
2023-03-17T22:21:15.113Z,15.04
2023-03-17T22:23:42.368Z,15.01
2023-03-17T22:26:12.544Z,15.00
2023-03-17T22:28:40.773Z,14.98
2023-03-17T22:31:18.894Z,14.95
2023-03-17T22:33:48.404Z,14.94
2023-03-17T22:36:15.825Z,14.92
2023-03-17T22:38:42.374Z,14.89
2023-03-17T22:41:13.126Z,14.85
2023-03-17T22:43:40.301Z,14.83
2023-03-17T22:46:10.563Z,14.79
2023-03-17T22:48:37.353Z,14.74
2023-03-17T22:51:06.078Z,14.70
2023-03-17T22:53:33.208Z,14.67
2023-03-17T22:56:00.762Z,14.64
2023-03-17T22:58:27.681Z,14.61
2023-03-17T23:00:55.248Z,14.59
2023-03-17T23:03:23.301Z,14.56
2023-03-17T23:05:52.203Z,14.54
2023-03-17T23:08:20.084Z,14.52
2023-03-17T23:10:50.997Z,14.49
2023-03-17T23:13:19.402Z,14.48
2023-03-17T23:15:46.766Z,14.44
2023-03-17T23:18:14.041Z,14.42
2023-03-17T23:20:40.980Z,14.38
2023-03-17T23:23:08.804Z,14.34
2023-03-17T23:25:36.663Z,14.30
2023-03-17T23:28:03.441Z,14.26
2023-03-17T23:30:30.877Z,14.23
2023-03-17T23:32:58.088Z,14.19
2023-03-17T23:35:25.264Z,14.15
2023-03-17T23:37:52.021Z,14.10
2023-03-17T23:40:22.112Z,14.03
2023-03-17T23:42:49.132Z,14.01
2023-03-17T23:45:19.160Z,13.94
2023-03-17T23:47:47.124Z,13.92
2023-03-17T23:50:15.797Z,13.88
2023-03-17T23:52:43.226Z,13.85
2023-03-17T23:55:12.062Z,13.81
2023-03-17T23:57:39.409Z,13.78
